createdAt,value
2023-02-25T00:02:04.731Z,32.33
2023-02-25T00:04:31.856Z,37.70
2023-02-25T00:06:58.601Z,34.93
2023-02-25T00:09:25.144Z,35.80
2023-02-25T00:11:51.778Z,38.57
2023-02-25T00:14:18.417Z,35.97
2023-02-25T00:16:45.141Z,35.37
2023-02-25T00:19:13.483Z,34.80
2023-02-25T00:21:40.037Z,35.50
2023-02-25T00:24:16.063Z,33.37
2023-02-25T00:26:43.586Z,35.63
2023-02-25T00:29:10.204Z,29.07
2023-02-25T00:31:36.806Z,32.03
2023-02-25T00:34:03.516Z,32.77
2023-02-25T00:36:30.052Z,31.77
2023-02-25T00:38:57.698Z,29.00
2023-02-25T00:41:29.027Z,31.27
2023-02-25T00:44:00.584Z,31.27
2023-02-25T00:46:28.695Z,33.60
2023-02-25T00:48:55.635Z,30.30
2023-02-25T00:51:24.733Z,26.50
2023-02-25T00:53:52.961Z,25.47
2023-02-25T00:56:20.504Z,29.27
2023-02-25T00:58:48.966Z,29.10
2023-02-25T01:01:27.678Z,30.17
2023-02-25T01:03:57.407Z,29.33
2023-02-25T01:06:25.650Z,33.37
2023-02-25T01:08:52.444Z,24.37
2023-02-25T01:11:27.066Z,29.87
2023-02-25T01:13:54.326Z,33.03
2023-02-25T01:16:23.835Z,27.10
2023-02-25T01:18:55.680Z,27.83
2023-02-25T01:21:25.944Z,29.00
2023-02-25T01:24:01.164Z,26.83
2023-02-25T01:26:29.596Z,25.77
2023-02-25T01:28:56.558Z,28.47
2023-02-25T01:31:29.644Z,27.00
2023-02-25T01:34:01.321Z,28.07
2023-02-25T01:36:28.941Z,30.70
2023-02-25T01:38:56.844Z,33.30
2023-02-25T01:41:24.703Z,24.27
2023-02-25T01:44:06.429Z,27.50
2023-02-25T01:46:33.206Z,26.20
2023-02-25T01:49:00.836Z,24.97
2023-02-25T01:51:28.402Z,27.00
2023-02-25T01:53:57.412Z,24.43
2023-02-25T01:56:26.051Z,27.03
2023-02-25T01:58:53.454Z,23.57
2023-02-25T02:01:22.291Z,24.87
2023-02-25T02:03:50.092Z,27.33
2023-02-25T02:06:21.867Z,25.23
2023-02-25T02:08:49.784Z,33.80
2023-02-25T02:11:17.134Z,31.07
2023-02-25T02:13:47.019Z,34.63
2023-02-25T02:16:31.704Z,34.90
2023-02-25T02:19:10.034Z,30.13
2023-02-25T02:22:00.746Z,34.77
2023-02-25T02:25:01.830Z,30.37
2023-02-25T02:27:34.317Z,28.83
2023-02-25T02:30:18.914Z,28.83
2023-02-25T02:32:58.874Z,29.70
2023-02-25T02:35:51.625Z,30.50
2023-02-25T02:38:18.125Z,33.90
2023-02-25T02:40:57.888Z,29.00
2023-02-25T02:43:33.671Z,33.50
2023-02-25T02:46:22.709Z,34.70
2023-02-25T02:49:27.119Z,32.70
2023-02-25T02:51:58.852Z,31.17
2023-02-25T02:54:29.984Z,28.33
2023-02-25T02:56:58.125Z,37.57
2023-02-25T02:59:34.871Z,31.33
2023-02-25T03:02:06.633Z,33.00
2023-02-25T03:04:36.508Z,33.87
2023-02-25T03:07:08.173Z,30.47
2023-02-25T03:09:46.815Z,32.40
2023-02-25T03:12:13.466Z,35.93
2023-02-25T03:14:40.208Z,32.33
2023-02-25T03:17:10.491Z,35.23
2023-02-25T03:19:46.082Z,32.00
2023-02-25T03:22:18.488Z,36.93
2023-02-25T03:24:50.428Z,36.33
2023-02-25T03:27:39.169Z,29.93
2023-02-25T03:30:14.869Z,36.20
2023-02-25T03:32:44.552Z,38.33
2023-02-25T03:35:12.355Z,34.77
2023-02-25T03:37:39.973Z,32.37
2023-02-25T03:40:12.287Z,33.93
2023-02-25T03:42:42.904Z,31.80
2023-02-25T03:45:10.996Z,35.87
2023-02-25T03:47:38.395Z,31.70
2023-02-25T03:50:35.595Z,30.67
2023-02-25T03:53:02.218Z,35.13
2023-02-25T03:55:29.388Z,36.83
2023-02-25T03:57:56.692Z,34.67
2023-02-25T04:00:26.367Z,27.57
2023-02-25T04:02:53.083Z,38.77
2023-02-25T04:05:21.730Z,32.70
2023-02-25T04:07:48.490Z,36.80
2023-02-25T04:10:16.375Z,30.10
2023-02-25T04:12:43.169Z,33.73
2023-02-25T04:15:10.426Z,31.10
2023-02-25T04:17:37.209Z,35.00
2023-02-25T04:20:05.509Z,35.23
2023-02-25T04:22:33.388Z,35.80
2023-02-25T04:25:00.433Z,38.63
2023-02-25T04:27:27.373Z,36.97
2023-02-25T04:29:54.081Z,38.43
2023-02-25T04:32:20.896Z,37.60
2023-02-25T04:34:47.556Z,40.83
2023-02-25T04:37:14.353Z,38.27
2023-02-25T04:39:41.531Z,41.03
2023-02-25T04:42:08.200Z,43.97
2023-02-25T04:44:35.244Z,41.53
2023-02-25T04:47:01.965Z,41.17
2023-02-25T04:49:28.578Z,38.50
2023-02-25T04:51:55.493Z,41.43
2023-02-25T04:54:22.218Z,39.70
2023-02-25T04:56:49.019Z,42.13
2023-02-25T04:59:16.184Z,38.63
2023-02-25T05:01:43.173Z,42.60
2023-02-25T05:04:09.966Z,41.60
2023-02-25T05:06:36.763Z,33.90
2023-02-25T05:09:04.001Z,42.07
2023-02-25T05:11:30.689Z,36.50
2023-02-25T05:13:57.651Z,38.07
2023-02-25T05:16:25.399Z,41.20
2023-02-25T05:18:52.479Z,43.83
2023-02-25T05:21:22.236Z,40.93
2023-02-25T05:23:50.474Z,38.67
2023-02-25T05:26:21.884Z,38.97
2023-02-25T05:28:52.846Z,39.93
2023-02-25T05:31:20.034Z,39.17
2023-02-25T05:33:47.714Z,43.97
2023-02-25T05:36:15.837Z,45.17
2023-02-25T05:38:42.623Z,38.80
2023-02-25T05:41:10.136Z,38.57
2023-02-25T05:43:38.410Z,40.33
2023-02-25T05:46:09.144Z,42.00
2023-02-25T05:48:35.739Z,40.63
2023-02-25T05:51:08.207Z,41.40
2023-02-25T05:53:35.166Z,41.57
2023-02-25T05:56:06.506Z,40.73
2023-02-25T05:58:34.707Z,40.07
2023-02-25T06:01:13.518Z,37.33
2023-02-25T06:03:41.721Z,41.03
2023-02-25T06:06:10.275Z,40.83
2023-02-25T06:08:36.852Z,41.57
2023-02-25T06:11:06.049Z,42.87
2023-02-25T06:13:33.190Z,41.47
2023-02-25T06:16:03.385Z,42.40
2023-02-25T06:18:29.979Z,44.37
2023-02-25T06:21:02.813Z,44.63
2023-02-25T06:23:29.407Z,49.13
2023-02-25T06:25:58.513Z,46.60
2023-02-25T06:28:25.040Z,48.90
2023-02-25T06:30:51.766Z,50.27
2023-02-25T06:33:18.452Z,52.47
2023-02-25T06:35:45.068Z,49.10
2023-02-25T06:38:11.600Z,57.07
2023-02-25T06:40:38.500Z,54.97
2023-02-25T06:43:05.087Z,49.93
2023-02-25T06:45:31.672Z,56.03
2023-02-25T06:47:58.732Z,58.07
2023-02-25T06:50:25.304Z,60.20
2023-02-25T06:52:51.799Z,57.17
2023-02-25T06:55:18.383Z,62.17
2023-02-25T06:57:44.927Z,54.53
2023-02-25T07:00:12.043Z,58.93
2023-02-25T07:02:38.568Z,64.07
2023-02-25T07:05:05.561Z,65.57
2023-02-25T07:07:32.380Z,54.93
2023-02-25T07:09:58.883Z,61.97
2023-02-25T07:12:25.408Z,68.07
2023-02-25T07:14:51.917Z,63.83
2023-02-25T07:17:18.511Z,69.20
2023-02-25T07:19:45.351Z,64.60
2023-02-25T08:55:43.862Z,36.40
2023-02-25T08:58:10.328Z,33.87
2023-02-25T09:00:36.851Z,39.67
2023-02-25T09:03:03.806Z,35.13
2023-02-25T09:05:30.369Z,34.93
2023-02-25T09:07:59.020Z,28.37
2023-02-25T09:10:25.714Z,31.00
2023-02-25T09:12:53.038Z,29.17
2023-02-25T09:15:21.733Z,30.80
2023-02-25T09:17:48.300Z,29.47
2023-02-25T09:20:17.994Z,27.70
2023-02-25T09:22:44.594Z,32.93
2023-02-25T09:25:11.185Z,26.60
2023-02-25T09:27:37.882Z,27.00
2023-02-25T09:30:04.714Z,33.77
2023-02-25T09:32:31.488Z,26.03
2023-02-25T09:35:00.122Z,23.30
2023-02-25T09:37:27.796Z,22.43
2023-02-25T09:39:54.908Z,24.80
2023-02-25T09:42:24.102Z,18.63
2023-02-25T09:44:57.569Z,21.30
2023-02-25T09:47:53.182Z,25.87
2023-02-25T09:50:23.753Z,21.83
2023-02-25T09:53:22.688Z,26.60
2023-02-25T09:55:51.949Z,20.43
2023-02-25T09:58:49.953Z,17.17
2023-02-25T10:01:24.912Z,10.30
2023-02-25T10:04:18.783Z,14.03
2023-02-25T10:06:50.538Z,12.37
2023-02-25T10:09:42.825Z,11.87
2023-02-25T10:12:30.926Z,12.43
2023-02-25T10:15:21.104Z,12.03
2023-02-25T10:18:04.698Z,11.87
2023-02-25T10:20:53.256Z,9.67
2023-02-25T10:23:38.542Z,6.43
2023-02-25T10:26:21.185Z,6.23
2023-02-25T10:28:53.142Z,14.83
2023-02-25T10:31:21.342Z,8.87
2023-02-25T10:33:50.595Z,5.20
2023-02-25T10:36:19.287Z,7.43
2023-02-25T10:38:48.035Z,5.40
2023-02-25T10:41:14.895Z,5.27
2023-02-25T10:43:42.252Z,9.70
2023-02-25T10:46:19.182Z,8.17
2023-02-25T10:48:55.759Z,11.07
2023-02-25T10:51:22.762Z,12.27
2023-02-25T10:53:58.662Z,10.10
2023-02-25T10:56:27.759Z,10.33
2023-02-25T10:59:07.632Z,11.07
2023-02-25T11:01:42.260Z,9.13
2023-02-25T11:04:14.755Z,10.30
2023-02-25T11:06:43.544Z,11.10
2023-02-25T11:09:19.387Z,10.83
2023-02-25T11:11:57.159Z,12.87
2023-02-25T11:14:35.586Z,12.77
2023-02-25T11:17:17.259Z,11.50
2023-02-25T11:19:58.923Z,12.20
2023-02-25T11:22:38.054Z,10.53
2023-02-25T11:25:08.168Z,19.50
2023-02-25T11:27:40.221Z,11.53
2023-02-25T11:30:14.699Z,11.90
2023-02-25T11:32:53.900Z,13.60
2023-02-25T11:35:28.788Z,13.43
2023-02-25T11:37:59.877Z,11.60
2023-02-25T11:40:36.234Z,12.03
2023-02-25T11:43:05.522Z,14.83
2023-02-25T11:45:38.606Z,12.07
2023-02-25T11:48:14.903Z,13.50
2023-02-25T11:51:09.788Z,17.57
2023-02-25T11:54:08.479Z,11.80
2023-02-25T11:56:37.982Z,14.70
2023-02-25T11:59:12.796Z,12.03
2023-02-25T12:01:50.996Z,11.50
2023-02-25T12:04:54.868Z,13.77
2023-02-25T12:08:12.857Z,8.67
2023-02-25T12:11:01.600Z,9.23
2023-02-25T12:13:50.650Z,8.30
2023-02-25T12:16:45.533Z,9.70
2023-02-25T12:19:39.551Z,7.00
2023-02-25T12:22:27.532Z,4.83
2023-02-25T12:25:10.551Z,5.10
2023-02-25T12:28:01.645Z,7.13
2023-02-25T12:30:36.619Z,6.63
2023-02-25T12:33:32.990Z,7.10
2023-02-25T12:36:34.863Z,9.03
2023-02-25T12:39:14.268Z,7.17
2023-02-25T12:42:09.701Z,6.73
2023-02-25T12:44:42.300Z,8.07
2023-02-25T12:47:44.080Z,10.00
2023-02-25T12:50:31.175Z,10.00
2023-02-25T12:53:06.470Z,16.17
2023-02-25T12:55:54.526Z,7.67
2023-02-25T12:58:40.103Z,8.63
2023-02-25T13:01:39.145Z,11.03
2023-02-25T13:04:24.731Z,15.23
2023-02-25T13:07:28.768Z,9.97
2023-02-25T13:10:14.099Z,10.20
2023-02-25T13:13:06.161Z,10.10
2023-02-25T13:15:53.983Z,13.43
2023-02-25T13:18:48.617Z,14.13
2023-02-25T13:21:29.675Z,17.27
2023-02-25T13:24:20.710Z,10.07
2023-02-25T13:26:53.400Z,9.43
2023-02-25T13:29:57.814Z,5.23
2023-02-25T13:32:56.686Z,5.03
2023-02-25T13:35:44.392Z,4.43
2023-02-25T13:39:06.742Z,5.33
2023-02-25T13:41:35.702Z,4.57
2023-02-25T13:44:52.619Z,7.17
2023-02-25T13:47:46.764Z,9.83
2023-02-25T13:50:34.987Z,8.87
2023-02-25T13:53:36.716Z,8.03
2023-02-25T13:56:23.652Z,17.67
2023-02-25T13:59:14.810Z,17.80
2023-02-25T14:01:49.578Z,8.70
2023-02-25T14:04:49.729Z,5.57
2023-02-25T14:07:51.675Z,6.40
2023-02-25T14:10:33.070Z,4.93
2023-02-25T14:13:39.823Z,6.73
2023-02-25T14:16:12.002Z,5.57
2023-02-25T14:18:44.641Z,6.57
2023-02-25T14:21:38.015Z,5.47
2023-02-25T14:24:10.628Z,7.63
2023-02-25T14:27:04.552Z,6.40
2023-02-25T14:30:03.222Z,6.87
2023-02-25T14:32:48.725Z,8.90
2023-02-25T14:35:37.929Z,11.83
2023-02-25T14:38:33.609Z,10.00
2023-02-25T14:41:23.620Z,8.20
2023-02-25T14:43:52.659Z,7.93
2023-02-25T14:46:33.206Z,8.50
2023-02-25T14:49:17.927Z,8.67
2023-02-25T14:52:03.583Z,7.30
2023-02-25T14:54:54.967Z,7.30
2023-02-25T14:58:07.342Z,8.57
2023-02-25T15:00:33.999Z,9.10
2023-02-25T15:03:17.440Z,10.10
2023-02-25T15:05:54.221Z,10.43
2023-02-25T15:08:52.636Z,9.63
2023-02-25T15:11:42.722Z,11.87
2023-02-25T15:14:12.246Z,11.30
2023-02-25T15:16:51.122Z,11.97
2023-02-25T15:19:29.906Z,11.07
2023-02-25T15:22:25.266Z,17.47
2023-02-25T15:24:54.651Z,36.70
2023-02-25T15:27:56.691Z,66.47
2023-02-25T15:30:25.162Z,41.03
2023-02-25T15:32:53.944Z,21.80
2023-02-25T15:35:35.254Z,22.07
2023-02-25T15:38:06.878Z,25.20
2023-02-25T15:40:33.760Z,23.20
2023-02-25T15:43:39.821Z,23.07
2023-02-25T15:46:06.370Z,15.00
2023-02-25T15:48:35.179Z,19.10
2023-02-25T15:51:03.353Z,18.80
2023-02-25T15:53:36.822Z,20.00
2023-02-25T15:56:03.305Z,21.20
2023-02-25T15:58:30.295Z,20.40
2023-02-25T16:01:06.471Z,15.50
2023-02-25T16:03:35.957Z,20.83
2023-02-25T16:06:07.062Z,26.47
2023-02-25T16:09:01.504Z,37.13
2023-02-25T16:11:35.753Z,19.23
2023-02-25T16:14:17.550Z,23.60
2023-02-25T16:16:52.740Z,21.27
2023-02-25T16:19:21.528Z,19.27
2023-02-25T16:22:09.327Z,18.40
2023-02-25T16:24:37.134Z,16.03
2023-02-25T16:27:25.842Z,17.60
2023-02-25T16:30:23.660Z,15.10
2023-02-25T16:33:09.222Z,17.40
2023-02-25T16:36:06.852Z,19.30
2023-02-25T16:38:56.343Z,22.70
2023-02-25T16:41:30.352Z,21.33
2023-02-25T16:44:03.418Z,28.63
2023-02-25T16:46:35.140Z,26.90
2023-02-25T16:49:03.744Z,21.53
2023-02-25T16:51:33.283Z,28.53
2023-02-25T16:54:06.245Z,29.33
2023-02-25T16:56:33.091Z,26.43
2023-02-25T16:59:14.909Z,21.93
2023-02-25T17:01:50.308Z,33.10
2023-02-25T17:04:36.436Z,33.33
2023-02-25T17:07:07.587Z,33.07
2023-02-25T17:09:34.765Z,24.87
2023-02-25T17:12:03.127Z,19.20
2023-02-25T17:14:30.915Z,18.93
2023-02-25T17:16:57.743Z,22.53
2023-02-25T17:19:24.907Z,23.40
2023-02-25T17:21:55.513Z,19.47
2023-02-25T17:24:26.998Z,23.63
2023-02-25T17:26:54.022Z,24.33
2023-02-25T17:29:21.174Z,21.10
2023-02-25T17:31:53.561Z,22.33
2023-02-25T17:34:28.054Z,26.33
2023-02-25T17:36:56.087Z,20.53
2023-02-25T17:39:22.748Z,23.07
2023-02-25T17:41:49.701Z,27.67
2023-02-25T17:44:44.667Z,23.63
2023-02-25T17:47:18.172Z,24.07
2023-02-25T17:49:44.826Z,22.63
2023-02-25T17:52:23.600Z,19.07
2023-02-25T17:55:04.266Z,14.27
2023-02-25T17:57:32.378Z,14.83
2023-02-25T18:00:27.019Z,16.10
2023-02-25T18:03:19.643Z,14.80
2023-02-25T18:05:54.524Z,12.90
2023-02-25T18:08:25.305Z,17.37
2023-02-25T18:11:02.280Z,13.37
2023-02-25T18:13:35.252Z,14.27
2023-02-25T18:16:41.187Z,17.23
2023-02-25T18:19:25.208Z,15.90
2023-02-25T18:21:52.811Z,18.03
2023-02-25T18:24:33.190Z,19.57
2023-02-25T18:27:30.652Z,20.93
2023-02-25T18:30:19.456Z,19.50
2023-02-25T18:32:46.936Z,21.37
2023-02-25T18:35:14.242Z,25.47
2023-02-25T18:37:41.588Z,22.07
2023-02-25T18:40:15.868Z,28.17
2023-02-25T18:42:42.642Z,29.30
2023-02-25T18:45:17.011Z,30.87
2023-02-25T18:47:44.019Z,34.00
2023-02-25T18:50:11.409Z,36.90
2023-02-25T18:52:38.259Z,29.87
2023-02-25T18:55:06.433Z,33.23
2023-02-25T18:57:33.051Z,32.27
2023-02-25T18:59:59.537Z,34.07
2023-02-25T19:02:35.250Z,31.47
2023-02-25T19:05:02.920Z,36.43
2023-02-25T19:07:31.816Z,38.23
2023-02-25T19:09:58.835Z,32.43
2023-02-25T19:12:27.398Z,32.70
2023-02-25T19:15:00.271Z,30.07
2023-02-25T19:17:28.702Z,27.03
2023-02-25T19:19:56.150Z,25.67
2023-02-25T19:22:23.061Z,25.43
2023-02-25T19:24:50.698Z,21.63
2023-02-25T19:27:28.351Z,21.47
2023-02-25T19:29:57.868Z,23.70
2023-02-25T19:32:25.502Z,16.60
2023-02-25T19:34:52.386Z,16.93
2023-02-25T19:37:20.715Z,15.70
2023-02-25T19:39:47.197Z,14.47
2023-02-25T19:42:13.919Z,13.73
2023-02-25T19:44:40.610Z,13.83
2023-02-25T19:47:08.025Z,13.03
2023-02-25T19:49:34.684Z,11.10
2023-02-25T19:52:01.558Z,12.80
2023-02-25T19:54:28.011Z,11.47
2023-02-25T19:56:54.909Z,10.27
2023-02-25T19:59:21.477Z,12.93
2023-02-25T20:01:48.015Z,11.10
2023-02-25T20:04:14.740Z,12.03
2023-02-25T20:06:41.369Z,10.87
2023-02-25T20:09:09.275Z,14.37
2023-02-25T20:11:35.929Z,11.10
2023-02-25T20:14:03.991Z,12.30
2023-02-25T20:16:31.153Z,11.30
2023-02-25T20:18:58.009Z,10.07
2023-02-25T20:21:26.333Z,10.60
2023-02-25T20:23:53.170Z,7.90
2023-02-25T20:26:23.106Z,11.10
2023-02-25T20:28:52.253Z,9.07
2023-02-25T20:31:19.179Z,10.30
2023-02-25T20:33:48.989Z,9.07
2023-02-25T20:36:30.507Z,10.07
2023-02-25T20:39:16.817Z,11.10
2023-02-25T20:41:44.868Z,10.20
2023-02-25T20:44:12.072Z,9.40
2023-02-25T20:46:39.832Z,8.07
2023-02-25T20:49:08.149Z,11.73
2023-02-25T20:51:34.930Z,9.50
2023-02-25T20:54:04.034Z,8.07
2023-02-25T20:56:32.101Z,8.70
2023-02-25T20:58:59.151Z,8.87
2023-02-25T21:01:25.850Z,8.13
2023-02-25T21:03:52.867Z,9.40
2023-02-25T21:06:21.792Z,8.90
2023-02-25T21:08:48.820Z,9.50
2023-02-25T21:11:15.620Z,8.10
2023-02-25T21:13:42.215Z,8.50
2023-02-25T21:16:09.155Z,8.93
2023-02-25T21:18:35.894Z,7.77
2023-02-25T21:21:06.065Z,7.80
2023-02-25T21:23:32.872Z,6.33
2023-02-25T21:26:00.348Z,5.67
2023-02-25T21:28:28.173Z,6.23
2023-02-25T21:31:21.295Z,7.00
2023-02-25T21:33:47.849Z,8.10
2023-02-25T21:36:14.602Z,6.20
2023-02-25T21:38:41.498Z,6.43
2023-02-25T21:41:13.379Z,5.57
2023-02-25T21:43:40.756Z,6.07
2023-02-25T21:46:11.521Z,6.53
2023-02-25T21:48:39.224Z,5.13
2023-02-25T21:51:06.539Z,5.33
2023-02-25T21:53:33.831Z,6.57
2023-02-25T21:56:09.163Z,9.13
2023-02-25T21:58:35.936Z,6.50
2023-02-25T22:01:16.111Z,7.80
2023-02-25T22:03:43.560Z,8.13
2023-02-25T22:06:10.096Z,9.97
2023-02-25T22:08:39.455Z,8.03
2023-02-25T22:11:11.614Z,7.27
2023-02-25T22:13:38.237Z,6.13
2023-02-25T22:16:04.969Z,6.33
2023-02-25T22:18:31.677Z,8.47
2023-02-25T22:21:16.276Z,7.20
2023-02-25T22:23:43.560Z,6.97
2023-02-25T22:26:15.654Z,5.90
2023-02-25T22:28:43.339Z,5.67
2023-02-25T22:31:12.573Z,5.13
2023-02-25T22:33:39.983Z,6.23
2023-02-25T22:36:07.438Z,5.80
2023-02-25T22:38:38.857Z,8.10
2023-02-25T22:41:10.247Z,7.07
2023-02-25T22:43:36.961Z,7.70
2023-02-25T22:46:08.850Z,8.40
2023-02-25T22:48:36.867Z,6.67
2023-02-25T22:51:04.441Z,6.63
2023-02-25T22:53:31.094Z,7.57
2023-02-25T22:56:04.746Z,6.30
2023-02-25T22:58:31.562Z,9.10
2023-02-25T23:00:58.245Z,7.87
2023-02-25T23:03:25.037Z,7.20
2023-02-25T23:05:54.590Z,7.17
2023-02-25T23:08:21.800Z,9.97
2023-02-25T23:10:48.366Z,8.37
2023-02-25T23:13:15.015Z,9.97
2023-02-25T23:15:42.178Z,6.43
2023-02-25T23:18:09.642Z,7.30
2023-02-25T23:20:38.414Z,7.23
2023-02-25T23:23:06.375Z,8.17
2023-02-25T23:25:35.244Z,6.10
2023-02-25T23:28:02.087Z,7.43
2023-02-25T23:30:28.828Z,8.20
2023-02-25T23:32:57.390Z,5.40
2023-02-25T23:35:24.426Z,5.63
2023-02-25T23:37:51.196Z,5.17
2023-02-25T23:40:17.853Z,5.23
2023-02-25T23:42:45.011Z,4.93
2023-02-25T23:45:13.028Z,6.10
2023-02-25T23:47:42.651Z,3.60
2023-02-25T23:50:15.070Z,5.93
2023-02-25T23:52:43.430Z,5.43
2023-02-25T23:55:11.568Z,3.37
2023-02-25T23:57:38.608Z,4.47
